sensor_id;sensor_type;location;lat;lon;timestamp;pressure;altitude;pressure_sealevel;temperature;humidity
44079;BME280;29744;49.078;12.878;2023-07-13T00:01:36;96274.91;;;20.57;42.34
44079;BME280;29744;49.078;12.878;2023-07-13T00:06:38;96267.91;;;20.55;42.39
44079;BME280;29744;49.078;12.878;2023-07-13T00:11:39;96253.13;;;20.57;41.99
44079;BME280;29744;49.078;12.878;2023-07-13T00:16:40;96270.25;;;20.57;42.26
44079;BME280;29744;49.078;12.878;2023-07-13T00:21:44;96291.25;;;20.57;42.20
44079;BME280;29744;49.078;12.878;2023-07-13T00:26:44;96293.19;;;20.56;42.27
44079;BME280;29744;49.078;12.878;2023-07-13T00:31:45;96267.91;;;20.55;42.42
44079;BME280;29744;49.078;12.878;2023-07-13T00:36:46;96267.91;;;20.55;42.07
44079;BME280;29744;49.078;12.878;2023-07-13T00:41:46;96256.22;;;20.55;42.54
44079;BME280;29744;49.078;12.878;2023-07-13T00:46:46;96250.78;;;20.55;42.02
44079;BME280;29744;49.078;12.878;2023-07-13T00:51:50;96240.66;;;20.55;41.97
44079;BME280;29744;49.078;12.878;2023-07-13T00:56:52;96252.34;;;20.56;41.95
44079;BME280;29744;49.078;12.878;2023-07-13T01:01:54;96250.78;;;20.55;42.44
44079;BME280;29744;49.078;12.878;2023-07-13T01:06:55;96258.16;;;20.54;42.23
44079;BME280;29744;49.078;12.878;2023-07-13T01:11:56;96268.25;;;20.54;42.20
44079;BME280;29744;49.078;12.878;2023-07-13T01:16:57;96271.78;;;20.54;42.45
44079;BME280;29744;49.078;12.878;2023-07-13T01:22:00;96271.78;;;20.54;42.32
44079;BME280;29744;49.078;12.878;2023-07-13T01:27:00;96257.38;;;20.54;41.98
44079;BME280;29744;49.078;12.878;2023-07-13T01:32:01;96260.09;;;20.54;42.43
44079;BME280;29744;49.078;12.878;2023-07-13T01:37:01;96257.38;;;20.54;42.59
44079;BME280;29744;49.078;12.878;2023-07-13T01:42:01;96251.13;;;20.53;42.39
44079;BME280;29744;49.078;12.878;2023-07-13T01:47:02;96248.41;;;20.53;42.23
44079;BME280;29744;49.078;12.878;2023-07-13T01:52:03;96240.25;;;20.53;42.38
44079;BME280;29744;49.078;12.878;2023-07-13T01:57:03;96250.34;;;20.53;42.07
44079;BME280;29744;49.078;12.878;2023-07-13T02:02:04;96250.34;;;20.53;41.98
44079;BME280;29744;49.078;12.878;2023-07-13T02:07:04;96254.22;;;20.52;41.87
44079;BME280;29744;49.078;12.878;2023-07-13T02:12:05;96259.69;;;20.52;42.28
44079;BME280;29744;49.078;12.878;2023-07-13T02:17:05;96270.56;;;20.52;42.36
44079;BME280;29744;49.078;12.878;2023-07-13T02:22:06;96263.56;;;20.51;42.24
44079;BME280;29744;49.078;12.878;2023-07-13T02:27:06;96263.19;;;20.52;42.41
44079;BME280;29744;49.078;12.878;2023-07-13T02:32:07;96265.13;;;20.52;42.42
44079;BME280;29744;49.078;12.878;2023-07-13T02:37:07;96266.28;;;20.51;42.42
44079;BME280;29744;49.078;12.878;2023-07-13T02:42:08;96264.69;;;20.50;42.41
44079;BME280;29744;49.078;12.878;2023-07-13T02:47:08;96265.50;;;20.50;42.61
44079;BME280;29744;49.078;12.878;2023-07-13T02:52:08;96268.59;;;20.49;42.29
44079;BME280;29744;49.078;12.878;2023-07-13T02:57:09;96269.72;;;20.48;42.36
44079;BME280;29744;49.078;12.878;2023-07-13T03:02:09;96252.25;;;20.49;42.31
44079;BME280;29744;49.078;12.878;2023-07-13T03:07:10;96274.03;;;20.49;42.23
44079;BME280;29744;49.078;12.878;2023-07-13T03:12:10;96263.50;;;20.47;42.31
44079;BME280;29744;49.078;12.878;2023-07-13T03:17:10;96271.66;;;20.47;42.65
44079;BME280;29744;49.078;12.878;2023-07-13T03:22:10;96277.13;;;20.47;42.27
44079;BME280;29744;49.078;12.878;2023-07-13T03:27:11;96276.34;;;20.47;42.63
44079;BME280;29744;49.078;12.878;2023-07-13T03:32:11;96276.34;;;20.47;42.59
44079;BME280;29744;49.078;12.878;2023-07-13T03:37:12;96278.63;;;20.45;42.63
44079;BME280;29744;49.078;12.878;2023-07-13T03:42:12;96289.16;;;20.46;42.18
44079;BME280;29744;49.078;12.878;2023-07-13T03:47:12;96305.50;;;20.46;42.17
44079;BME280;29744;49.078;12.878;2023-07-13T03:52:13;96309.03;;;20.47;42.39
44079;BME280;29744;49.078;12.878;2023-07-13T03:57:13;96313.69;;;20.46;42.29
44079;BME280;29744;49.078;12.878;2023-07-13T04:02:13;96310.97;;;20.46;42.44
44079;BME280;29744;49.078;12.878;2023-07-13T04:07:13;96304.72;;;20.46;42.06
44079;BME280;29744;49.078;12.878;2023-07-13T04:12:14;96310.97;;;20.46;42.37
44079;BME280;29744;49.078;12.878;2023-07-13T04:17:15;96319.91;;;20.47;42.34
44079;BME280;29744;49.078;12.878;2023-07-13T04:22:15;96310.16;;;20.46;42.50
44079;BME280;29744;49.078;12.878;2023-07-13T04:27:15;96316.41;;;20.46;42.39
44079;BME280;29744;49.078;12.878;2023-07-13T04:32:15;96314.47;;;20.47;42.21
44079;BME280;29744;49.078;12.878;2023-07-13T04:37:16;96321.50;;;20.48;42.20
44079;BME280;29744;49.078;12.878;2023-07-13T04:42:16;96317.19;;;20.47;42.29
44079;BME280;29744;49.078;12.878;2023-07-13T04:47:20;96322.28;;;20.48;42.43
44079;BME280;29744;49.078;12.878;2023-07-13T04:52:20;96331.22;;;20.49;42.43
44079;BME280;29744;49.078;12.878;2023-07-13T04:57:20;96316.47;;;20.50;42.29
44079;BME280;29744;49.078;12.878;2023-07-13T05:02:21;96322.69;;;20.50;42.61
44079;BME280;29744;49.078;12.878;2023-07-13T05:07:21;96330.88;;;20.50;42.22
44079;BME280;29744;49.078;12.878;2023-07-13T05:12:22;96327.00;;;20.51;42.55
44079;BME280;29744;49.078;12.878;2023-07-13T05:17:22;96321.53;;;20.51;42.16
44079;BME280;29744;49.078;12.878;2023-07-13T05:22:22;96329.72;;;20.51;42.34
44079;BME280;29744;49.078;12.878;2023-07-13T05:27:23;96337.88;;;20.51;42.37
44079;BME280;29744;49.078;12.878;2023-07-13T05:32:23;96342.97;;;20.53;42.47
44079;BME280;29744;49.078;12.878;2023-07-13T05:37:23;96357.00;;;20.55;42.32
44079;BME280;29744;49.078;12.878;2023-07-13T05:42:24;96359.38;;;20.57;42.21
44079;BME280;29744;49.078;12.878;2023-07-13T05:47:24;96360.94;;;20.58;42.69
44079;BME280;29744;49.078;12.878;2023-07-13T05:52:24;96364.47;;;20.58;42.25
44079;BME280;29744;49.078;12.878;2023-07-13T05:57:25;96372.63;;;20.58;42.34
44079;BME280;29744;49.078;12.878;2023-07-13T06:02:25;96381.59;;;20.59;42.14
44079;BME280;29744;49.078;12.878;2023-07-13T06:07:26;96389.75;;;20.59;42.27
44079;BME280;29744;49.078;12.878;2023-07-13T06:12:27;96385.56;;;20.61;42.42
44079;BME280;29744;49.078;12.878;2023-07-13T06:17:27;96389.44;;;20.60;42.19
44079;BME280;29744;49.078;12.878;2023-07-13T06:22:28;96383.63;;;20.62;42.16
44079;BME280;29744;49.078;12.878;2023-07-13T06:27:28;96384.78;;;20.61;42.67
44079;BME280;29744;49.078;12.878;2023-07-13T06:32:28;96382.03;;;20.61;42.14
44079;BME280;29744;49.078;12.878;2023-07-13T06:37:28;96394.88;;;20.60;42.13
44079;BME280;29744;49.078;12.878;2023-07-13T06:42:29;96391.78;;;20.62;41.99
44079;BME280;29744;49.078;12.878;2023-07-13T06:47:29;96385.19;;;20.63;42.74
44079;BME280;29744;49.078;12.878;2023-07-13T06:52:29;96378.59;;;20.64;42.22
44079;BME280;29744;49.078;12.878;2023-07-13T06:57:30;96372.34;;;20.63;42.32
44079;BME280;29744;49.078;12.878;2023-07-13T07:02:30;96390.28;;;20.64;42.17
44079;BME280;29744;49.078;12.878;2023-07-13T07:07:30;96391.06;;;20.65;42.29
44079;BME280;29744;49.078;12.878;2023-07-13T07:12:30;96390.69;;;20.66;42.13
44079;BME280;29744;49.078;12.878;2023-07-13T07:17:31;96395.00;;;20.67;41.89
44079;BME280;29744;49.078;12.878;2023-07-13T07:22:31;96399.66;;;20.67;41.92
44079;BME280;29744;49.078;12.878;2023-07-13T07:27:32;96402.81;;;20.69;42.21
44079;BME280;29744;49.078;12.878;2023-07-13T07:32:32;96405.97;;;20.71;42.42
44079;BME280;29744;49.078;12.878;2023-07-13T07:37:32;96406.78;;;20.75;42.36
44079;BME280;29744;49.078;12.878;2023-07-13T07:42:34;96408.06;;;20.81;42.03
44079;BME280;29744;49.078;12.878;2023-07-13T07:47:35;96403.47;;;20.85;41.98
44079;BME280;29744;49.078;12.878;2023-07-13T07:52:35;96399.22;;;20.88;41.73
44079;BME280;29744;49.078;12.878;2023-07-13T07:57:36;96405.09;;;20.90;41.92
44079;BME280;29744;49.078;12.878;2023-07-13T08:02:36;96414.47;;;20.92;42.02
44079;BME280;29744;49.078;12.878;2023-07-13T08:07:37;96403.19;;;20.94;41.50
44079;BME280;29744;49.078;12.878;2023-07-13T08:12:39;96424.28;;;20.97;41.50
44079;BME280;29744;49.078;12.878;2023-07-13T08:17:39;96418.47;;;20.98;41.69
44079;BME280;29744;49.078;12.878;2023-07-13T08:22:40;96423.19;;;21.01;41.61
44079;BME280;29744;49.078;12.878;2023-07-13T08:27:40;96429.84;;;21.04;41.32
44079;BME280;29744;49.078;12.878;2023-07-13T08:32:40;96418.56;;;21.05;41.55
44079;BME280;29744;49.078;12.878;2023-07-13T08:37:41;96419.41;;;21.09;41.44
44079;BME280;29744;49.078;12.878;2023-07-13T08:42:55;96429.16;;;21.10;41.67
44079;BME280;29744;49.078;12.878;2023-07-13T08:48:03;96435.03;;;21.12;41.37
44079;BME280;29744;49.078;12.878;2023-07-13T08:53:04;96460.41;;;21.16;41.10
44079;BME280;29744;49.078;12.878;2023-07-13T08:58:12;96456.53;;;21.17;41.69
44079;BME280;29744;49.078;12.878;2023-07-13T09:03:20;96476.03;;;21.19;41.00
44079;BME280;29744;49.078;12.878;2023-07-13T09:14:16;96468.28;;;21.22;41.43
44079;BME280;29744;49.078;12.878;2023-07-13T09:19:28;96474.19;;;21.24;41.38
44079;BME280;29744;49.078;12.878;2023-07-13T09:24:39;96480.84;;;21.26;41.12
44079;BME280;29744;49.078;12.878;2023-07-13T09:29:45;96473.09;;;21.28;41.70
44079;BME280;29744;49.078;12.878;2023-07-13T09:34:52;96472.72;;;21.30;41.20
44079;BME280;29744;49.078;12.878;2023-07-13T09:39:55;96468.47;;;21.32;41.31
44079;BME280;29744;49.078;12.878;2023-07-13T09:45:00;96465.38;;;21.34;41.25
44079;BME280;29744;49.078;12.878;2023-07-13T09:50:09;96473.56;;;21.34;41.20
44079;BME280;29744;49.078;12.878;2023-07-13T09:55:34;96471.56;;;21.31;41.23
44079;BME280;29744;49.078;12.878;2023-07-13T10:00:35;96469.25;;;21.33;41.31
44079;BME280;29744;49.078;12.878;2023-07-13T10:05:40;96470.03;;;21.33;41.19
44079;BME280;29744;49.078;12.878;2023-07-13T10:10:41;96477.44;;;21.33;40.95
44079;BME280;29744;49.078;12.878;2023-07-13T10:15:41;96474.72;;;21.33;41.20
44079;BME280;29744;49.078;12.878;2023-07-13T10:20:42;96477.03;;;21.31;41.41
44079;BME280;29744;49.078;12.878;2023-07-13T10:25:43;96476.25;;;21.30;41.05
44079;BME280;29744;49.078;12.878;2023-07-13T10:30:46;96469.22;;;21.29;41.08
44079;BME280;29744;49.078;12.878;2023-07-13T10:35:51;96475.44;;;21.30;41.20
44079;BME280;29744;49.078;12.878;2023-07-13T10:40:59;96473.88;;;21.29;41.17
44079;BME280;29744;49.078;12.878;2023-07-13T10:46:01;96467.63;;;21.28;41.31
44079;BME280;29744;49.078;12.878;2023-07-13T10:51:05;96466.47;;;21.29;40.95
44079;BME280;29744;49.078;12.878;2023-07-13T10:56:33;96471.50;;;21.27;41.19
44079;BME280;29744;49.078;12.878;2023-07-13T11:07:10;96469.94;;;21.26;41.15
44079;BME280;29744;49.078;12.878;2023-07-13T11:28:05;96488.25;;;21.26;41.13
44079;BME280;29744;49.078;12.878;2023-07-13T11:33:24;96488.63;;;21.24;41.47
44079;BME280;29744;49.078;12.878;2023-07-13T11:43:32;96482.78;;;21.26;41.36
44079;BME280;29744;49.078;12.878;2023-07-13T11:48:34;96487.47;;;21.25;41.24
44079;BME280;29744;49.078;12.878;2023-07-13T11:53:40;96497.59;;;21.25;41.30
44079;BME280;29744;49.078;12.878;2023-07-13T11:58:41;96499.53;;;21.24;40.93
44079;BME280;29744;49.078;12.878;2023-07-13T12:03:41;96492.50;;;21.23;41.37
44079;BME280;29744;49.078;12.878;2023-07-13T12:08:42;96484.66;;;21.22;41.13
44079;BME280;29744;49.078;12.878;2023-07-13T12:13:44;96487.38;;;21.22;41.48
44079;BME280;29744;49.078;12.878;2023-07-13T12:18:44;96495.56;;;21.22;41.34
44079;BME280;29744;49.078;12.878;2023-07-13T12:23:49;96494.78;;;21.21;41.52
44079;BME280;29744;49.078;12.878;2023-07-13T12:28:54;96485.00;;;21.20;41.35
44079;BME280;29744;49.078;12.878;2023-07-13T12:34:24;96488.06;;;21.15;41.03
44079;BME280;29744;49.078;12.878;2023-07-13T12:39:33;96491.56;;;21.15;41.48
44079;BME280;29744;49.078;12.878;2023-07-13T12:44:40;96482.59;;;21.15;41.34
44079;BME280;29744;49.078;12.878;2023-07-13T12:49:43;96479.09;;;21.14;41.06
44079;BME280;29744;49.078;12.878;2023-07-13T12:54:59;96480.59;;;21.12;41.49
44079;BME280;29744;49.078;12.878;2023-07-13T13:00:02;96466.19;;;21.11;41.79
44079;BME280;29744;49.078;12.878;2023-07-13T13:05:04;96473.94;;;21.09;41.49
44079;BME280;29744;49.078;12.878;2023-07-13T13:10:12;96456.78;;;21.09;41.47
44079;BME280;29744;49.078;12.878;2023-07-13T13:15:12;96458.31;;;21.06;41.21
44079;BME280;29744;49.078;12.878;2023-07-13T13:20:22;96459.47;;;21.05;41.45
44079;BME280;29744;49.078;12.878;2023-07-13T13:25:23;96440.38;;;21.05;41.92
44079;BME280;29744;49.078;12.878;2023-07-13T13:30:23;96436.06;;;21.04;41.19
44079;BME280;29744;49.078;12.878;2023-07-13T13:35:24;96434.13;;;21.05;41.72
44079;BME280;29744;49.078;12.878;2023-07-13T13:40:26;96424.38;;;21.04;41.61
44079;BME280;29744;49.078;12.878;2023-07-13T13:45:27;96430.63;;;21.04;41.38
44079;BME280;29744;49.078;12.878;2023-07-13T13:50:27;96438.81;;;21.04;41.35
44079;BME280;29744;49.078;12.878;2023-07-13T13:55:28;96438.38;;;21.02;41.52
44079;BME280;29744;49.078;12.878;2023-07-13T14:00:28;96437.22;;;21.03;41.33
44079;BME280;29744;49.078;12.878;2023-07-13T14:05:29;96433.72;;;21.03;41.91
44079;BME280;29744;49.078;12.878;2023-07-13T14:10:30;96439.97;;;21.03;41.66
44079;BME280;29744;49.078;12.878;2023-07-13T14:15:30;96432.94;;;21.02;41.52
44079;BME280;29744;49.078;12.878;2023-07-13T14:20:31;96438.38;;;21.02;41.61
44079;BME280;29744;49.078;12.878;2023-07-13T14:25:31;96439.53;;;21.01;41.78
44079;BME280;29744;49.078;12.878;2023-07-13T14:30:31;96444.63;;;21.03;41.58
44079;BME280;29744;49.078;12.878;2023-07-13T14:35:32;96456.31;;;21.03;41.58
44079;BME280;29744;49.078;12.878;2023-07-13T14:40:33;96448.91;;;21.04;41.63
44079;BME280;29744;49.078;12.878;2023-07-13T14:45:33;96452.44;;;21.04;41.09
44079;BME280;29744;49.078;12.878;2023-07-13T14:50:34;96441.53;;;21.04;41.23
44079;BME280;29744;49.078;12.878;2023-07-13T14:55:36;96445.84;;;21.05;41.31
44079;BME280;29744;49.078;12.878;2023-07-13T15:00:36;96429.47;;;21.05;41.08
44079;BME280;29744;49.078;12.878;2023-07-13T15:05:37;96431.84;;;21.07;41.44
44079;BME280;29744;49.078;12.878;2023-07-13T15:10:37;96439.22;;;21.06;41.39
44079;BME280;29744;49.078;12.878;2023-07-13T15:15:39;96437.28;;;21.07;41.39
44079;BME280;29744;49.078;12.878;2023-07-13T15:20:40;96443.53;;;21.07;41.51
44079;BME280;29744;49.078;12.878;2023-07-13T15:25:42;96441.59;;;21.08;41.21
44079;BME280;29744;49.078;12.878;2023-07-13T15:30:45;96436.13;;;21.08;41.22
44079;BME280;29744;49.078;12.878;2023-07-13T15:35:48;96448.19;;;21.07;41.51
44079;BME280;29744;49.078;12.878;2023-07-13T15:40:49;96450.91;;;21.07;41.33
44079;BME280;29744;49.078;12.878;2023-07-13T15:45:50;96454.00;;;21.05;41.50
44079;BME280;29744;49.078;12.878;2023-07-13T15:50:53;96453.22;;;21.05;41.75
44079;BME280;29744;49.078;12.878;2023-07-13T15:55:54;96462.56;;;21.04;41.96
44079;BME280;29744;49.078;12.878;2023-07-13T16:00:55;96464.50;;;21.03;41.52
44079;BME280;29744;49.078;12.878;2023-07-13T16:05:55;96473.47;;;21.04;41.41
44079;BME280;29744;49.078;12.878;2023-07-13T16:10:56;96482.78;;;21.03;41.47
44079;BME280;29744;49.078;12.878;2023-07-13T16:15:56;96473.47;;;21.04;41.70
44079;BME280;29744;49.078;12.878;2023-07-13T16:20:57;96480.84;;;21.03;41.54
44079;BME280;29744;49.078;12.878;2023-07-13T16:25:59;96483.59;;;21.03;41.59
44079;BME280;29744;49.078;12.878;2023-07-13T16:30:59;96483.59;;;21.03;41.52
44079;BME280;29744;49.078;12.878;2023-07-13T16:36:02;96488.25;;;21.03;41.22
44079;BME280;29744;49.078;12.878;2023-07-13T16:41:02;96492.13;;;21.02;41.12
44079;BME280;29744;49.078;12.878;2023-07-13T16:46:04;96493.69;;;21.03;41.48
44079;BME280;29744;49.078;12.878;2023-07-13T16:51:04;96499.16;;;21.03;41.68
44079;BME280;29744;49.078;12.878;2023-07-13T16:56:14;96486.66;;;21.02;41.44
44079;BME280;29744;49.078;12.878;2023-07-13T17:01:15;96499.16;;;21.03;41.77
44079;BME280;29744;49.078;12.878;2023-07-13T17:06:21;96504.19;;;21.01;41.15
44079;BME280;29744;49.078;12.878;2023-07-13T17:11:23;96507.69;;;21.01;41.41
44079;BME280;29744;49.078;12.878;2023-07-13T17:16:26;96515.09;;;21.01;41.59
44079;BME280;29744;49.078;12.878;2023-07-13T17:21:27;96517.03;;;21.00;41.42
44079;BME280;29744;49.078;12.878;2023-07-13T17:26:28;96512.72;;;20.99;41.37
44079;BME280;29744;49.078;12.878;2023-07-13T17:31:29;96529.09;;;20.99;41.61
44079;BME280;29744;49.078;12.878;2023-07-13T17:36:30;96525.94;;;20.97;41.42
44079;BME280;29744;49.078;12.878;2023-07-13T17:41:32;96527.09;;;20.96;41.80
44079;BME280;29744;49.078;12.878;2023-07-13T17:46:33;96534.47;;;20.96;41.49
44079;BME280;29744;49.078;12.878;2023-07-13T17:51:34;96548.09;;;20.96;41.90
44079;BME280;29744;49.078;12.878;2023-07-13T17:56:37;96540.28;;;20.94;41.63
44079;BME280;29744;49.078;12.878;2023-07-13T18:01:37;96548.81;;;20.93;41.64
44079;BME280;29744;49.078;12.878;2023-07-13T18:06:42;96549.63;;;20.93;41.78
44079;BME280;29744;49.078;12.878;2023-07-13T18:11:53;96553.50;;;20.92;41.88
44079;BME280;29744;49.078;12.878;2023-07-13T18:16:56;96560.09;;;20.91;41.51
44079;BME280;29744;49.078;12.878;2023-07-13T18:22:03;96569.78;;;20.89;41.91
44079;BME280;29744;49.078;12.878;2023-07-13T18:27:10;96557.31;;;20.88;42.18
44079;BME280;29744;49.078;12.878;2023-07-13T18:32:17;96562.75;;;20.88;41.78
44079;BME280;29744;49.078;12.878;2023-07-13T18:37:21;96562.75;;;20.88;41.93
44079;BME280;29744;49.078;12.878;2023-07-13T18:42:22;96559.25;;;20.87;41.93
44079;BME280;29744;49.078;12.878;2023-07-13T18:47:24;96569.34;;;20.86;42.01
44079;BME280;29744;49.078;12.878;2023-07-13T18:52:25;96576.75;;;20.86;41.69
44079;BME280;29744;49.078;12.878;2023-07-13T18:57:25;96580.63;;;20.85;41.95
44079;BME280;29744;49.078;12.878;2023-07-13T19:02:26;96588.00;;;20.84;41.94
44079;BME280;29744;49.078;12.878;2023-07-13T19:07:26;96593.81;;;20.83;41.89
44079;BME280;29744;49.078;12.878;2023-07-13T19:12:29;96594.63;;;20.83;41.84
44079;BME280;29744;49.078;12.878;2023-07-13T19:17:30;96603.16;;;20.82;41.82
44079;BME280;29744;49.078;12.878;2023-07-13T19:22:31;96612.47;;;20.81;42.20
44079;BME280;29744;49.078;12.878;2023-07-13T19:27:31;96614.78;;;20.79;41.84
44079;BME280;29744;49.078;12.878;2023-07-13T19:32:32;96619.44;;;20.78;41.79
44079;BME280;29744;49.078;12.878;2023-07-13T19:37:33;96625.69;;;20.79;42.02
44079;BME280;29744;49.078;12.878;2023-07-13T19:42:36;96626.81;;;20.78;42.15
44079;BME280;29744;49.078;12.878;2023-07-13T19:47:37;96630.69;;;20.77;42.35
44079;BME280;29744;49.078;12.878;2023-07-13T19:52:49;96644.31;;;20.77;42.02
44079;BME280;29744;49.078;12.878;2023-07-13T19:57:51;96652.06;;;20.75;42.20
44079;BME280;29744;49.078;12.878;2023-07-13T20:02:52;96654.78;;;20.75;42.00
44079;BME280;29744;49.078;12.878;2023-07-13T20:07:56;96658.66;;;20.74;42.06
44079;BME280;29744;49.078;12.878;2023-07-13T20:12:58;96665.69;;;20.75;42.00
44079;BME280;29744;49.078;12.878;2023-07-13T20:18:01;96670.72;;;20.73;42.24
44079;BME280;29744;49.078;12.878;2023-07-13T20:23:10;96674.59;;;20.72;42.37
44079;BME280;29744;49.078;12.878;2023-07-13T20:28:11;96688.22;;;20.72;42.21
44079;BME280;29744;49.078;12.878;2023-07-13T20:33:20;96693.25;;;20.70;41.99
44079;BME280;29744;49.078;12.878;2023-07-13T20:38:22;96704.13;;;20.70;42.15
44079;BME280;29744;49.078;12.878;2023-07-13T20:43:22;96707.66;;;20.70;42.17
44079;BME280;29744;49.078;12.878;2023-07-13T20:48:35;96715.03;;;20.70;41.90
44079;BME280;29744;49.078;12.878;2023-07-13T20:53:36;96721.63;;;20.69;42.25
44079;BME280;29744;49.078;12.878;2023-07-13T20:58:37;96720.06;;;20.68;42.04
44079;BME280;29744;49.078;12.878;2023-07-13T21:03:37;96720.06;;;20.68;42.17
44079;BME280;29744;49.078;12.878;2023-07-13T21:08:38;96732.09;;;20.67;42.16
44079;BME280;29744;49.078;12.878;2023-07-13T21:13:38;96738.34;;;20.67;42.26
44079;BME280;29744;49.078;12.878;2023-07-13T21:18:39;96736.75;;;20.66;42.23
44079;BME280;29744;49.078;12.878;2023-07-13T21:23:39;96738.69;;;20.66;42.47
44079;BME280;29744;49.078;12.878;2023-07-13T21:28:43;96744.16;;;20.66;42.27
44079;BME280;29744;49.078;12.878;2023-07-13T21:33:43;96746.88;;;20.66;42.64
44079;BME280;29744;49.078;12.878;2023-07-13T21:38:44;96745.28;;;20.65;42.43
44079;BME280;29744;49.078;12.878;2023-07-13T21:43:45;96748.38;;;20.63;42.25
44079;BME280;29744;49.078;12.878;2023-07-13T21:48:46;96760.06;;;20.64;42.17
44079;BME280;29744;49.078;12.878;2023-07-13T21:53:47;96752.25;;;20.62;42.09
44079;BME280;29744;49.078;12.878;2023-07-13T21:58:49;96756.56;;;20.63;42.29
44079;BME280;29744;49.078;12.878;2023-07-13T22:03:56;96759.63;;;20.62;42.10
44079;BME280;29744;49.078;12.878;2023-07-13T22:08:57;96763.16;;;20.62;41.88
44079;BME280;29744;49.078;12.878;2023-07-13T22:13:57;96762.34;;;20.62;42.33
44079;BME280;29744;49.078;12.878;2023-07-13T22:19:00;96759.63;;;20.62;42.31
44079;BME280;29744;49.078;12.878;2023-07-13T22:24:02;96756.13;;;20.61;42.55
44079;BME280;29744;49.078;12.878;2023-07-13T22:29:14;96760.78;;;20.61;42.67
44079;BME280;29744;49.078;12.878;2023-07-13T22:34:17;96759.16;;;20.60;42.38
44079;BME280;29744;49.078;12.878;2023-07-13T22:39:25;96760.78;;;20.61;42.10
44079;BME280;29744;49.078;12.878;2023-07-13T22:44:26;96763.81;;;20.59;42.39
44079;BME280;29744;49.078;12.878;2023-07-13T22:49:28;96760.78;;;20.61;42.25
44079;BME280;29744;49.078;12.878;2023-07-13T22:54:30;96755.66;;;20.59;42.30
44079;BME280;29744;49.078;12.878;2023-07-13T22:59:30;96756.81;;;20.58;42.27
44079;BME280;29744;49.078;12.878;2023-07-13T23:04:35;96756.00;;;20.58;42.09
44079;BME280;29744;49.078;12.878;2023-07-13T23:09:36;96750.56;;;20.58;42.36
44079;BME280;29744;49.078;12.878;2023-07-13T23:14:36;96754.44;;;20.57;41.83
44079;BME280;29744;49.078;12.878;2023-07-13T23:19:36;96751.69;;;20.57;42.16
44079;BME280;29744;49.078;12.878;2023-07-13T23:24:37;96747.41;;;20.55;42.25
44079;BME280;29744;49.078;12.878;2023-07-13T23:29:37;96744.69;;;20.55;42.17
44079;BME280;29744;49.078;12.878;2023-07-13T23:34:38;96755.56;;;20.55;42.08
44079;BME280;29744;49.078;12.878;2023-07-13T23:39:38;96749.34;;;20.55;42.19
44079;BME280;29744;49.078;12.878;2023-07-13T23:44:38;96751.28;;;20.54;42.04
44079;BME280;29744;49.078;12.878;2023-07-13T23:49:39;96752.41;;;20.53;42.21
44079;BME280;29744;49.078;12.878;2023-07-13T23:54:40;96749.69;;;20.53;42.17
44079;BME280;29744;49.078;12.878;2023-07-13T23:59:40;96746.97;;;20.53;41.97
